Time;durP1;ratioP1;P1;durP2;ratioP2;P2;SDS_P1;SDS_P2;PMS_P1;PMS_P2;Temp;Humidity;BMP_temperature;BMP_pressure;BME280_temperature;BME280_humidity;BME280_pressure;Samples;Min_cycle;Max_cycle;Signal;HPM_P1;HPM_P2
2023/09/10 00:02:03;;;;;;;29.48;24.55;;;;;;;20.26;98.24;101614.59;5055805;28;20036;-52
2023/09/10 00:04:29;;;;;;;30.50;23.38;;;;;;;20.25;97.94;101618.28;5039895;28;20052;-53
2023/09/10 00:06:54;;;;;;;28.95;22.95;;;;;;;20.25;97.37;101613.75;5043023;28;20431;-51
2023/09/10 00:09:20;;;;;;;30.08;24.58;;;;;;;20.23;98.23;101617.59;5042637;28;20060;-49
2023/09/10 00:11:45;;;;;;;28.60;25.60;;;;;;;20.17;98.09;101618.25;5050180;28;20032;-50
2023/09/10 00:14:11;;;;;;;28.00;25.10;;;;;;;20.19;97.77;101618.94;5041573;28;20025;-51
2023/09/10 00:16:36;;;;;;;28.83;25.75;;;;;;;20.16;98.64;101620.09;5047716;28;20031;-51
2023/09/10 00:19:01;;;;;;;28.23;25.10;;;;;;;20.15;98.02;101615.69;5045494;28;20037;-51
2023/09/10 00:21:27;;;;;;;28.45;25.40;;;;;;;20.13;97.95;101621.28;5045260;28;20041;-50
2023/09/10 00:23:52;;;;;;;27.48;24.67;;;;;;;20.11;97.92;101615.19;5048014;28;20082;-53
2023/09/10 00:26:17;;;;;;;28.08;25.17;;;;;;;20.08;98.23;101612.81;5049168;28;20021;-52
2023/09/10 00:28:44;;;;;;;29.85;23.45;;;;;;;20.06;97.63;101614.00;5056063;28;20474;-53
2023/09/10 00:31:09;;;;;;;27.13;23.60;;;;;;;20.07;98.15;101605.75;5050366;28;20024;-53
2023/09/10 00:33:34;;;;;;;25.38;22.67;;;;;;;20.04;98.80;101608.75;5055715;28;20116;-50
2023/09/10 00:36:00;;;;;;;27.85;23.30;;;;;;;20.03;98.55;101612.44;5047935;28;20079;-50
2023/09/10 00:38:25;;;;;;;25.30;22.63;;;;;;;20.02;98.39;101605.38;5046516;28;20104;-50
2023/09/10 00:40:50;;;;;;;30.75;23.83;;;;;;;19.98;96.94;101608.56;5043240;28;20424;-50
2023/09/10 00:43:16;;;;;;;28.83;23.38;;;;;;;19.99;97.72;101604.88;5053911;28;20488;-50
2023/09/10 00:45:41;;;;;;;27.67;22.90;;;;;;;19.95;97.42;101607.88;5048070;28;20036;-52
2023/09/10 00:48:07;;;;;;;25.08;22.42;;;;;;;19.94;98.49;101597.25;5053274;28;20035;-50
2023/09/10 00:50:33;;;;;;;27.90;22.67;;;;;;;19.92;97.84;101604.66;5048021;28;20036;-50
2023/09/10 00:53:00;;;;;;;27.67;21.33;;;;;;;19.91;98.27;101608.34;5048425;28;20013;-50
2023/09/10 00:55:29;;;;;;;25.70;22.90;;;;;;;19.85;98.18;101607.16;5055197;28;20026;-50
2023/09/10 00:57:55;;;;;;;30.73;24.50;;;;;;;19.88;98.66;101609.50;5046133;28;20513;-50
2023/09/10 01:00:21;;;;;;;29.10;23.40;;;;;;;19.85;99.06;101606.28;5044375;28;20373;-51
2023/09/10 01:02:49;;;;;;;25.98;23.20;;;;;;;19.83;99.85;101601.06;5051473;28;20036;-51
2023/09/10 01:05:15;;;;;;;25.20;22.52;;;;;;;19.81;99.29;101603.06;5041572;28;20095;-50
2023/09/10 01:07:41;;;;;;;27.90;22.65;;;;;;;19.83;99.38;101608.31;5051548;28;20354;-49
2023/09/10 01:10:07;;;;;;;26.48;23.55;;;;;;;19.81;99.42;101605.78;5046224;28;20026;-49
2023/09/10 01:12:59;;;;;;;27.63;24.65;;;;;;;19.81;99.26;101602.25;5041819;28;20388;-50
2023/09/10 01:15:30;;;;;;;29.08;25.42;;;;;;;19.80;99.45;101603.22;5046618;28;20047;-50
2023/09/10 01:18:05;;;;;;;29.33;25.52;;;;;;;19.77;100.00;101605.25;5045099;28;20041;-53
2023/09/10 01:20:51;;;;;;;28.25;25.08;;;;;;;19.75;100.00;101601.88;5043880;28;20087;-50
2023/09/10 01:23:30;;;;;;;31.08;26.95;;;;;;;19.73;99.36;101601.16;5044724;28;20033;-52
2023/09/10 01:25:56;;;;;;;32.15;25.25;;;;;;;19.71;99.42;101605.84;5045286;28;20067;-51
2023/09/10 01:28:22;;;;;;;30.73;26.58;;;;;;;19.72;99.35;101601.31;5045466;28;20103;-50
2023/09/10 01:30:47;;;;;;;27.70;24.98;;;;;;;19.71;99.42;101605.84;5048443;28;20024;-50
2023/09/10 01:33:26;;;;;;;29.90;26.33;;;;;;;19.72;100.00;101599.47;5047074;28;20496;-50
2023/09/10 01:36:02;;;;;;;29.83;26.75;;;;;;;19.66;100.00;101604.66;5044720;28;20083;-52
2023/09/10 01:38:42;;;;;;;29.25;26.42;;;;;;;19.66;100.00;101597.41;5043202;28;20044;-50
2023/09/10 01:41:13;;;;;;;29.73;26.55;;;;;;;19.62;100.00;101608.66;5045797;28;20367;-50
2023/09/10 01:43:40;;;;;;;34.50;29.90;;;;;;;19.59;100.00;101612.53;5045602;28;20066;-52
2023/09/10 01:46:06;;;;;;;32.17;28.73;;;;;;;19.60;100.00;101612.34;5047421;28;20072;-50
2023/09/10 01:48:32;;;;;;;32.13;28.75;;;;;;;19.61;100.00;101613.19;5049897;28;20517;-51
2023/09/10 01:50:58;;;;;;;33.55;30.15;;;;;;;19.60;100.00;101615.06;5048294;28;20032;-51
2023/09/10 01:53:23;;;;;;;30.20;27.17;;;;;;;19.61;100.00;101615.88;5044824;28;20108;-52
2023/09/10 01:55:48;;;;;;;35.50;29.55;;;;;;;19.59;100.00;101618.75;5049016;28;20101;-50
2023/09/10 01:58:14;;;;;;;32.17;28.90;;;;;;;19.55;100.00;101617.38;5050843;28;20075;-50
2023/09/10 02:00:40;;;;;;;32.03;28.67;;;;;;;19.54;100.00;101612.97;5044774;28;20036;-53
2023/09/10 02:03:05;;;;;;;32.55;29.38;;;;;;;19.52;100.00;101620.38;5046280;28;20021;-52
2023/09/10 02:05:31;;;;;;;33.95;30.27;;;;;;;19.52;100.00;101617.69;5042143;28;20028;-50
2023/09/10 02:07:56;;;;;;;31.52;28.33;;;;;;;19.53;100.00;101618.53;5045980;28;20481;-50
2023/09/10 02:10:21;;;;;;;33.42;29.98;;;;;;;19.50;100.00;101619.72;5044354;28;20107;-49
2023/09/10 02:12:47;;;;;;;36.10;30.77;;;;;;;19.46;100.00;101614.78;5040528;28;20061;-50
2023/09/10 02:15:13;;;;;;;33.42;30.02;;;;;;;19.47;100.00;101624.53;5042323;28;20117;-53
2023/09/10 02:17:38;;;;;;;33.58;30.27;;;;;;;19.47;100.00;101633.47;5045877;28;20029;-50
2023/09/10 02:20:09;;;;;;;34.70;31.10;;;;;;;19.46;100.00;101625.56;5043546;28;20431;-50
2023/09/10 02:22:39;;;;;;;36.38;32.50;;;;;;;19.41;100.00;101621.47;5045418;28;20061;-50
2023/09/10 02:25:06;;;;;;;34.60;30.25;;;;;;;19.46;100.00;101625.56;5047000;28;20040;-50
2023/09/10 02:27:32;;;;;;;34.60;31.23;;;;;;;19.44;100.00;101625.72;5047043;28;20390;-50
2023/09/10 02:29:58;;;;;;;37.15;33.50;;;;;;;19.42;100.00;101628.56;5044838;28;20024;-49
2023/09/10 02:32:23;;;;;;;36.42;32.92;;;;;;;19.39;100.00;101623.47;5049488;28;20055;-50
2023/09/10 02:34:51;;;;;;;38.22;34.22;;;;;;;19.38;100.00;101621.81;5042457;28;20582;-50
2023/09/10 02:37:17;;;;;;;38.38;34.08;;;;;;;19.36;100.00;101623.78;5046926;28;20044;-51
2023/09/10 02:39:43;;;;;;;37.25;33.30;;;;;;;19.38;100.00;101627.19;5043486;28;20029;-50
2023/09/10 02:42:08;;;;;;;38.70;34.80;;;;;;;19.35;100.00;101621.25;5044131;28;20505;-49
2023/09/10 02:44:33;;;;;;;37.80;33.97;;;;;;;19.36;100.00;101621.09;5042391;28;20068;-50
2023/09/10 02:46:59;;;;;;;40.13;36.03;;;;;;;19.33;100.00;101616.00;5049506;28;20037;-50
2023/09/10 02:49:24;;;;;;;39.40;35.65;;;;;;;19.32;100.00;101616.19;5043076;28;20056;-50
2023/09/10 02:51:50;;;;;;;41.22;36.83;;;;;;;19.32;100.00;101617.03;5046531;28;20108;-50
2023/09/10 02:54:15;;;;;;;41.50;37.50;;;;;;;19.31;100.00;101626.09;5044585;28;20513;-50
2023/09/10 02:56:41;;;;;;;42.50;38.35;;;;;;;19.30;100.00;101615.50;5046193;28;20040;-50
2023/09/10 02:59:06;;;;;;;42.38;37.95;;;;;;;19.29;100.00;101627.28;5049503;28;20043;-51
2023/09/10 03:01:31;;;;;;;42.95;38.38;;;;;;;19.29;100.00;101627.28;5051171;28;20522;-51
2023/09/10 03:03:56;;;;;;;47.28;41.88;;;;;;;19.27;100.00;101622.03;5046283;28;20116;-50
2023/09/10 03:06:22;;;;;;;44.83;39.60;;;;;;;19.26;100.00;101625.72;5047161;28;20052;-53
2023/09/10 03:08:47;;;;;;;44.85;40.22;;;;;;;19.26;100.00;101624.91;5047130;28;20483;-51
2023/09/10 03:11:13;;;;;;;44.50;39.22;;;;;;;19.25;100.00;101629.41;5045480;28;20067;-49
2023/09/10 03:13:38;;;;;;;46.63;41.72;;;;;;;19.25;100.00;101626.72;5037229;28;20025;-50
2023/09/10 03:16:03;;;;;;;44.30;39.92;;;;;;;19.22;100.00;101618.97;5052763;28;20100;-50
2023/09/10 03:18:29;;;;;;;46.42;41.88;;;;;;;19.22;100.00;101621.66;5043741;28;20421;-51
2023/09/10 03:20:55;;;;;;;45.67;41.03;;;;;;;19.23;100.00;101626.91;5053076;28;20031;-50
2023/09/10 03:23:20;;;;;;;47.75;43.03;;;;;;;19.23;100.00;101617.97;5046632;28;20045;-51
2023/09/10 03:25:45;;;;;;;44.08;39.88;;;;;;;19.22;100.00;101611.72;5045932;28;20060;-50
2023/09/10 03:28:11;;;;;;;45.97;40.97;;;;;;;19.21;100.00;101623.50;5042123;28;20460;-51
2023/09/10 03:30:36;;;;;;;45.80;40.97;;;;;;;19.21;100.00;101620.81;5046591;28;20383;-51
2023/09/10 03:33:02;;;;;;;46.90;42.22;;;;;;;19.19;100.00;101617.44;5051256;28;20399;-50
2023/09/10 03:35:28;;;;;;;47.08;42.15;;;;;;;19.17;100.00;101618.59;5049307;28;20032;-50
2023/09/10 03:37:53;;;;;;;47.65;42.67;;;;;;;19.17;100.00;101616.75;5043086;28;20048;-49
2023/09/10 03:40:18;;;;;;;45.55;40.95;;;;;;;19.16;100.00;101611.50;5050866;28;20100;-51
2023/09/10 03:42:43;;;;;;;48.13;42.78;;;;;;;19.15;100.00;101612.50;5043113;28;20071;-53
2023/09/10 03:45:09;;;;;;;46.97;41.85;;;;;;;19.16;100.00;101619.59;5057203;28;20043;-49
2023/09/10 03:47:36;;;;;;;49.15;44.20;;;;;;;19.15;100.00;101617.88;5049305;28;20084;-51
2023/09/10 03:50:04;;;;;;;47.10;42.78;;;;;;;19.12;100.00;101613.69;5048448;28;20041;-51
2023/09/10 03:52:29;;;;;;;48.22;43.33;;;;;;;19.13;100.00;101611.81;5049131;28;20033;-50
2023/09/10 03:54:54;;;;;;;44.93;40.53;;;;;;;19.11;100.00;101611.97;5049326;28;20082;-50
2023/09/10 03:57:20;;;;;;;45.10;40.83;;;;;;;19.14;100.00;101611.66;5052843;28;20809;-50
2023/09/10 03:59:45;;;;;;;49.25;44.15;;;;;;;19.10;100.00;101614.81;5047489;28;20113;-51
2023/09/10 04:02:13;;;;;;;48.10;43.27;;;;;;;19.11;100.00;101605.75;5047492;28;20021;-51
2023/09/10 04:04:39;;;;;;;47.67;42.60;;;;;;;19.08;100.00;101603.38;5052079;28;20299;-50
2023/09/10 04:07:04;;;;;;;45.53;41.10;;;;;;;19.10;100.00;101595.97;5047425;28;20395;-52
2023/09/10 04:09:30;;;;;;;47.33;42.75;;;;;;;19.10;100.00;101588.75;5054346;28;20025;-50
2023/09/10 04:11:57;;;;;;;47.95;42.83;;;;;;;19.11;100.00;101603.06;5051644;28;20200;-50
2023/09/10 04:14:23;;;;;;;47.80;43.13;;;;;;;19.09;100.00;101597.81;5043359;28;20040;-50
2023/09/10 04:16:48;;;;;;;48.78;43.72;;;;;;;19.08;100.00;101598.81;5044931;28;20034;-53
2023/09/10 04:19:14;;;;;;;49.40;44.10;;;;;;;19.07;100.00;101594.44;5048236;28;20434;-50
2023/09/10 04:21:39;;;;;;;43.80;39.50;;;;;;;19.08;100.00;101601.50;5045368;28;20039;-50
2023/09/10 04:24:05;;;;;;;47.80;43.00;;;;;;;19.02;100.00;101592.22;5052537;28;20029;-49
2023/09/10 04:26:30;;;;;;;48.63;44.05;;;;;;;19.03;100.00;101595.75;5045626;28;20398;-49
2023/09/10 04:28:56;;;;;;;47.00;42.13;;;;;;;19.02;100.00;101594.91;5049828;28;20025;-49
2023/09/10 04:31:21;;;;;;;45.78;40.97;;;;;;;19.00;100.00;101591.53;5045322;28;20025;-50
2023/09/10 04:33:46;;;;;;;48.05;43.20;;;;;;;18.99;100.00;101594.38;5051683;28;20097;-50
2023/09/10 04:36:13;;;;;;;47.00;42.08;;;;;;;18.99;100.00;101595.22;5048997;28;20029;-53
2023/09/10 04:38:39;;;;;;;46.15;41.55;;;;;;;18.97;100.00;101599.91;5050218;28;20039;-50
2023/09/10 04:41:04;;;;;;;46.67;41.97;;;;;;;18.96;100.00;101595.50;5054523;28;20466;-51
2023/09/10 04:43:29;;;;;;;46.27;41.83;;;;;;;18.95;100.00;101603.75;5041144;28;20067;-50
2023/09/10 04:45:55;;;;;;;45.67;41.13;;;;;;;18.92;100.00;101602.22;5044332;28;20770;-50
2023/09/10 04:48:20;;;;;;;46.47;41.40;;;;;;;18.92;100.00;101602.22;5048922;28;20025;-50
2023/09/10 04:50:45;;;;;;;46.90;42.10;;;;;;;18.92;100.00;101602.22;5044463;28;20025;-52
2023/09/10 04:53:13;;;;;;;48.00;43.22;;;;;;;18.89;100.00;101602.53;5046055;28;20025;-51
2023/09/10 04:55:38;;;;;;;45.35;40.58;;;;;;;18.89;100.00;101599.84;5045067;28;20025;-50
2023/09/10 04:58:04;;;;;;;47.27;42.27;;;;;;;18.86;100.00;101606.34;5051112;28;20394;-50
2023/09/10 05:00:30;;;;;;;46.03;41.45;;;;;;;18.85;100.00;101614.56;5043105;28;20272;-50
2023/09/10 05:02:55;;;;;;;44.95;40.65;;;;;;;18.83;100.00;101605.81;5047203;28;20025;-51
2023/09/10 05:05:20;;;;;;;46.15;41.55;;;;;;;18.80;100.00;101617.72;5045694;28;20030;-50
2023/09/10 05:07:49;;;;;;;47.13;42.28;;;;;;;18.79;100.00;101615.19;5047497;28;20071;-51
2023/09/10 05:10:15;;;;;;;43.78;39.45;;;;;;;18.81;100.00;101618.56;5047570;28;20029;-52
2023/09/10 05:12:40;;;;;;;46.13;40.88;;;;;;;18.79;100.00;101620.56;5044637;28;20021;-50
2023/09/10 05:15:06;;;;;;;45.28;40.80;;;;;;;18.77;100.00;101619.84;5043743;28;20033;-50
2023/09/10 05:17:32;;;;;;;45.42;40.65;;;;;;;18.78;100.00;101618.84;5047035;28;20024;-50
2023/09/10 05:19:57;;;;;;;44.72;40.35;;;;;;;18.78;100.00;101621.56;5046354;28;20486;-50
2023/09/10 05:22:22;;;;;;;44.97;40.63;;;;;;;18.76;100.00;101612.78;5048693;28;20032;-50
2023/09/10 05:24:48;;;;;;;45.03;40.50;;;;;;;18.74;100.00;101615.63;5045132;28;20044;-50
2023/09/10 05:27:13;;;;;;;43.75;39.25;;;;;;;18.78;100.00;101621.56;5049722;28;20374;-50
2023/09/10 05:29:38;;;;;;;43.22;38.83;;;;;;;18.78;100.00;101621.56;5045193;28;20029;-50
2023/09/10 05:32:04;;;;;;;47.97;43.10;;;;;;;18.77;100.00;101623.41;5046609;28;20044;-50
2023/09/10 05:34:29;;;;;;;44.63;40.08;;;;;;;18.80;100.00;101627.63;5044358;28;20037;-51
2023/09/10 05:36:54;;;;;;;45.63;41.00;;;;;;;18.76;100.00;101624.38;5047516;28;20021;-50
2023/09/10 05:39:19;;;;;;;43.33;39.10;;;;;;;18.75;100.00;101625.41;5049654;28;20033;-49
2023/09/10 05:41:45;;;;;;;45.03;40.38;;;;;;;18.75;100.00;101625.41;5048796;28;20024;-50
2023/09/10 05:44:10;;;;;;;45.75;41.17;;;;;;;18.76;100.00;101619.00;5049139;28;20149;-50
2023/09/10 05:46:35;;;;;;;46.50;41.67;;;;;;;18.79;100.00;101623.25;5043657;28;20044;-50
2023/09/10 05:49:01;;;;;;;43.42;39.22;;;;;;;18.81;100.00;101627.47;5049256;28;20052;-50
2023/09/10 05:51:26;;;;;;;45.13;40.53;;;;;;;18.80;100.00;101627.63;5050539;28;20096;-50
2023/09/10 05:53:51;;;;;;;44.95;40.38;;;;;;;18.83;100.00;101630.03;5050629;28;20028;-50
2023/09/10 05:56:17;;;;;;;44.20;39.75;;;;;;;18.82;100.00;101629.19;5051389;28;20359;-50
2023/09/10 05:58:42;;;;;;;42.13;38.00;;;;;;;18.85;100.00;101636.97;5047289;28;20025;-50
2023/09/10 06:01:08;;;;;;;42.50;38.22;;;;;;;18.86;100.00;101629.75;5047650;28;20093;-49
2023/09/10 06:03:33;;;;;;;43.08;38.50;;;;;;;18.92;100.00;101630.97;5056189;28;20029;-49
2023/09/10 06:06:01;;;;;;;44.38;39.97;;;;;;;18.94;100.00;101637.91;5049520;28;20017;-50
2023/09/10 06:08:27;;;;;;;42.90;38.63;;;;;;;18.94;100.00;101635.22;5044009;28;20073;-51
2023/09/10 06:10:53;;;;;;;43.50;39.17;;;;;;;18.98;100.00;101644.66;5041037;28;20020;-49
2023/09/10 06:13:18;;;;;;;42.13;37.92;;;;;;;19.02;100.00;101648.75;5040706;28;20036;-50
2023/09/10 06:15:44;;;;;;;44.03;39.35;;;;;;;19.07;100.00;101644.75;5039257;28;20080;-49
2023/09/10 06:18:09;;;;;;;42.20;38.05;;;;;;;19.11;100.00;101651.53;5046759;28;20065;-49
2023/09/10 06:20:34;;;;;;;41.92;37.78;;;;;;;19.15;100.00;101656.44;5043035;28;20079;-50
2023/09/10 06:22:59;;;;;;;42.20;38.15;;;;;;;19.18;100.00;101652.59;5036106;28;20021;-51
2023/09/10 06:25:25;;;;;;;40.17;35.97;;;;;;;19.23;100.00;101650.28;5049808;28;20166;-51
2023/09/10 06:27:51;;;;;;;42.38;38.13;;;;;;;19.30;100.00;101656.75;5050099;28;20417;-50
2023/09/10 06:30:16;;;;;;;41.42;37.08;;;;;;;19.35;100.00;101649.06;5046399;28;20520;-49
2023/09/10 06:32:41;;;;;;;42.45;38.00;;;;;;;19.42;100.00;101649.28;5047701;28;20029;-50
2023/09/10 06:35:07;;;;;;;41.63;36.53;;;;;;;19.48;100.00;101656.72;5044946;28;20037;-50
2023/09/10 06:37:32;;;;;;;42.38;37.72;;;;;;;19.53;100.00;101651.69;5048651;28;20505;-50
2023/09/10 06:39:58;;;;;;;38.47;34.58;;;;;;;19.60;100.00;101647.41;5040853;28;20103;-49
2023/09/10 06:42:23;;;;;;;39.72;35.60;;;;;;;19.67;100.00;101650.31;5052162;28;20025;-48
2023/09/10 06:44:49;;;;;;;38.47;33.88;;;;;;;19.73;100.00;101657.75;5036788;28;20199;-51
2023/09/10 06:47:14;;;;;;;39.65;35.47;;;;;;;19.80;100.00;101655.31;5054873;28;20377;-50
2023/09/10 06:49:39;;;;;;;36.13;32.33;;;;;;;19.88;100.00;101659.91;5043547;28;20027;-50
2023/09/10 06:52:05;;;;;;;35.60;31.85;;;;;;;19.92;100.00;101654.03;5047561;28;20032;-49
2023/09/10 06:54:31;;;;;;;35.50;31.80;;;;;;;20.02;100.00;101664.72;5047131;28;20033;-50
2023/09/10 06:56:58;;;;;;;34.67;30.92;;;;;;;20.09;100.00;101660.34;5047206;28;20471;-49
2023/09/10 06:59:24;;;;;;;37.42;29.67;;;;;;;20.18;100.00;101660.41;5038751;28;20029;-50
2023/09/10 07:01:50;;;;;;;34.20;30.13;;;;;;;20.28;100.00;101664.69;5043186;28;20037;-51
2023/09/10 07:04:17;;;;;;;32.42;28.73;;;;;;;20.37;100.00;101670.97;5045825;28;20467;-52
2023/09/10 07:06:43;;;;;;;30.42;27.42;;;;;;;20.48;100.00;101678.78;5048080;28;20017;-52
2023/09/10 07:09:10;;;;;;;29.75;25.70;;;;;;;20.60;100.00;101667.66;5039547;28;20342;-53
2023/09/10 07:11:36;;;;;;;29.20;26.08;;;;;;;20.73;100.00;101662.66;5044042;28;20108;-53
2023/09/10 07:14:01;;;;;;;30.42;25.48;;;;;;;20.86;100.00;101664.91;5043195;28;20506;-52
2023/09/10 07:16:28;;;;;;;30.75;24.30;;;;;;;21.02;100.00;101672.19;5040857;28;20083;-50
2023/09/10 07:18:53;;;;;;;26.95;24.05;;;;;;;21.20;100.00;101662.09;5048355;28;20032;-50
2023/09/10 07:21:18;;;;;;;26.60;23.67;;;;;;;21.36;100.00;101666.63;5046902;28;20041;-52
2023/09/10 07:23:44;;;;;;;29.35;23.48;;;;;;;21.54;99.90;101661.09;5044572;28;20045;-49
2023/09/10 07:26:09;;;;;;;24.33;21.73;;;;;;;21.78;98.38;101675.59;5054209;28;20032;-52
2023/09/10 07:28:34;;;;;;;29.02;22.00;;;;;;;21.98;97.15;101666.13;5053790;28;20029;-50
2023/09/10 07:31:00;;;;;;;25.20;22.10;;;;;;;22.17;95.60;101664.03;5050853;28;20092;-49
2023/09/10 07:33:25;;;;;;;23.67;21.05;;;;;;;22.42;94.98;101672.94;5047627;28;20036;-49
2023/09/10 07:35:50;;;;;;;27.05;21.02;;;;;;;22.63;93.07;101676.88;5042670;28;20057;-49
2023/09/10 07:38:16;;;;;;;23.43;19.67;;;;;;;22.79;92.17;101675.97;5052667;28;20041;-49
2023/09/10 07:40:41;;;;;;;25.50;19.05;;;;;;;22.98;91.80;101670.09;5043170;28;20307;-49
2023/09/10 07:43:06;;;;;;;21.23;18.63;;;;;;;23.31;92.24;101672.56;5049239;28;20045;-50
2023/09/10 07:45:32;;;;;;;21.48;18.05;;;;;;;23.55;89.24;101673.38;5043200;28;20449;-50
2023/09/10 07:47:59;;;;;;;20.02;17.83;;;;;;;23.73;89.28;101681.19;5047815;28;20031;-49
2023/09/10 07:50:27;;;;;;;24.42;17.40;;;;;;;23.94;86.22;101673.22;5048300;28;20056;-49
2023/09/10 07:52:53;;;;;;;19.85;15.75;;;;;;;24.10;84.44;101677.63;5049129;28;20057;-49
2023/09/10 07:55:18;;;;;;;19.15;14.65;;;;;;;24.31;84.50;101679.56;5044315;28;20115;-49
2023/09/10 07:57:43;;;;;;;17.70;13.40;;;;;;;24.52;81.99;101677.97;5043817;28;20513;-51
2023/09/10 08:00:09;;;;;;;14.35;12.40;;;;;;;24.72;80.92;101681.81;5037002;28;20036;-49
2023/09/10 08:02:35;;;;;;;21.98;12.73;;;;;;;24.91;79.99;101680.38;5043317;28;20029;-50
2023/09/10 08:05:00;;;;;;;14.20;10.88;;;;;;;25.17;80.32;101684.38;5044963;28;20041;-50
2023/09/10 08:07:25;;;;;;;17.83;10.68;;;;;;;25.37;79.01;101689.19;5039253;28;20518;-49
2023/09/10 08:09:51;;;;;;;16.77;10.53;;;;;;;25.50;76.58;101692.03;5040915;28;20041;-50
2023/09/10 08:12:16;;;;;;;18.02;10.77;;;;;;;25.70;76.43;101694.06;5034005;28;20321;-49
2023/09/10 08:14:41;;;;;;;13.65;10.93;;;;;;;25.88;76.06;101694.44;5045052;28;20029;-50
2023/09/10 08:17:07;;;;;;;13.23;9.77;;;;;;;26.10;74.16;101692.50;5047710;28;20029;-50
2023/09/10 08:19:32;;;;;;;13.32;9.85;;;;;;;26.30;73.42;101694.50;5048613;28;20581;-52
2023/09/10 08:21:57;;;;;;;13.33;10.23;;;;;;;26.44;73.41;101688.06;5048176;28;20472;-50
2023/09/10 08:24:23;;;;;;;16.15;9.52;;;;;;;26.63;72.42;101686.53;5044753;28;20348;-51
2023/09/10 08:26:48;;;;;;;15.45;9.77;;;;;;;26.80;70.09;101684.25;5046939;28;20025;-50
2023/09/10 08:29:13;;;;;;;15.13;9.30;;;;;;;27.06;70.36;101688.94;5051492;28;20433;-50
2023/09/10 08:31:39;;;;;;;17.48;9.50;;;;;;;27.17;69.09;101684.75;5046382;28;20039;-50
2023/09/10 08:34:04;;;;;;;16.52;8.77;;;;;;;27.47;67.82;101679.78;5046333;28;20053;-48
2023/09/10 08:36:30;;;;;;;14.05;8.32;;;;;;;27.65;67.48;101683.78;5043939;28;20055;-48
2023/09/10 08:38:55;;;;;;;17.38;7.97;;;;;;;27.92;65.98;101675.53;5042825;28;20040;-48
2023/09/10 08:41:51;;;;;;;13.45;7.90;;;;;;;28.14;68.84;101682.44;5044815;28;20025;-48
2023/09/10 08:44:20;;;;;;;14.43;7.85;;;;;;;28.27;64.13;101681.56;5049683;28;20044;-47
2023/09/10 08:46:49;;;;;;;10.43;7.68;;;;;;;28.49;64.88;101684.84;5043129;28;20497;-48
2023/09/10 08:49:16;;;;;;;16.42;7.90;;;;;;;28.72;65.02;101678.06;5041663;28;20046;-48
2023/09/10 08:51:42;;;;;;;17.05;7.82;;;;;;;28.95;62.85;101678.34;5044736;28;20132;-48
2023/09/10 08:54:08;;;;;;;12.77;7.57;;;;;;;29.06;61.32;101684.16;5047386;28;20468;-48
2023/09/10 08:56:35;;;;;;;14.95;7.07;;;;;;;29.27;62.19;101681.09;5048355;28;20050;-49
2023/09/10 08:59:03;;;;;;;12.93;7.20;;;;;;;29.27;61.77;101680.25;5044320;28;20037;-48
2023/09/10 09:01:28;;;;;;;10.70;7.03;;;;;;;29.62;63.28;101679.75;5044617;28;20021;-51
2023/09/10 09:03:54;;;;;;;11.23;6.97;;;;;;;29.80;62.03;101687.22;5023055;28;20087;-51
2023/09/10 09:06:20;;;;;;;10.88;7.03;;;;;;;30.08;60.15;101689.44;5037693;28;20033;-50
2023/09/10 09:08:49;;;;;;;14.18;6.60;;;;;;;30.14;57.84;101679.47;5041018;28;20467;-48
2023/09/10 09:11:16;;;;;;;13.55;7.57;;;;;;;30.32;60.82;101676.72;5045707;28;20029;-48
2023/09/10 09:13:44;;;;;;;11.45;6.72;;;;;;;30.56;57.97;101674.97;5039936;28;20033;-51
2023/09/10 09:16:11;;;;;;;12.40;6.13;;;;;;;30.56;58.10;101669.50;5045917;28;20107;-50
2023/09/10 09:18:37;;;;;;;12.57;6.80;;;;;;;30.93;57.60;101665.81;5043867;28;20482;-51
2023/09/10 09:21:11;;;;;;;11.18;6.18;;;;;;;31.25;59.52;101671.06;5045711;28;21739;-48
2023/09/10 09:23:44;;;;;;;10.15;6.30;;;;;;;31.36;57.96;101664.75;5044670;28;20037;-47
2023/09/10 09:26:11;;;;;;;9.45;6.50;;;;;;;31.54;54.06;101666.56;5039100;28;20029;-47
2023/09/10 09:28:38;;;;;;;14.52;5.90;;;;;;;31.71;54.10;101667.53;5036708;28;20387;-50
2023/09/10 09:31:08;;;;;;;11.85;5.57;;;;;;;31.80;55.53;101665.25;5038670;28;20018;-49
2023/09/10 09:33:34;;;;;;;7.20;5.53;;;;;;;31.91;53.58;101658.94;5042932;28;20116;-48
2023/09/10 09:36:10;;;;;;;10.67;5.60;;;;;;;32.03;53.18;101661.66;5045915;28;20124;-49
2023/09/10 09:38:43;;;;;;;12.40;5.32;;;;;;;32.38;54.31;101659.94;5044201;28;20287;-49
2023/09/10 09:41:09;;;;;;;14.23;5.32;;;;;;;32.31;53.93;101650.97;5042604;28;20041;-47
2023/09/10 09:43:35;;;;;;;8.00;4.90;;;;;;;32.53;49.67;101654.72;5043129;28;20063;-48
2023/09/10 09:46:01;;;;;;;11.45;5.38;;;;;;;32.63;49.48;101646.69;5040935;28;20029;-49
2023/09/10 09:48:27;;;;;;;14.07;5.13;;;;;;;32.69;48.28;101641.28;5041891;28;20506;-49
2023/09/10 09:50:52;;;;;;;12.98;4.90;;;;;;;33.06;47.79;101636.19;5040944;28;20025;-48
2023/09/10 09:53:18;;;;;;;11.07;4.47;;;;;;;33.24;50.44;101640.63;5042094;28;20116;-48
2023/09/10 09:55:44;;;;;;;15.30;5.35;;;;;;;33.28;48.53;101633.53;5042700;28;20041;-48
2023/09/10 09:58:11;;;;;;;12.40;5.28;;;;;;;33.52;46.16;101641.59;5042342;28;21204;-47
2023/09/10 10:00:37;;;;;;;9.75;5.00;;;;;;;33.76;47.51;101635.91;5038418;28;20569;-51
2023/09/10 10:03:04;;;;;;;11.68;5.30;;;;;;;33.74;45.85;101637.00;5037451;28;20032;-48
2023/09/10 10:05:32;;;;;;;11.50;4.97;;;;;;;33.96;45.38;101633.44;5039349;28;20029;-49
2023/09/10 10:07:58;;;;;;;11.48;4.68;;;;;;;34.09;47.06;101627.56;5039177;28;20028;-48
2023/09/10 10:10:24;;;;;;;9.95;4.45;;;;;;;34.21;45.81;101626.63;5038137;28;20037;-48
2023/09/10 10:12:52;;;;;;;10.23;4.15;;;;;;;34.33;44.76;101630.06;5032614;28;20650;-49
2023/09/10 10:15:18;;;;;;;6.57;4.07;;;;;;;34.50;44.02;101626.38;5040659;28;20546;-49
2023/09/10 10:17:45;;;;;;;15.18;4.30;;;;;;;34.62;42.96;101625.13;5038452;28;20057;-52
2023/09/10 10:20:12;;;;;;;9.48;4.25;;;;;;;34.69;42.56;101633.22;5044158;28;20455;-48
2023/09/10 10:22:38;;;;;;;9.47;4.50;;;;;;;34.76;41.76;101619.22;5047019;28;20029;-49
2023/09/10 10:25:04;;;;;;;14.80;4.72;;;;;;;34.67;41.48;101627.09;5042509;28;20601;-48
2023/09/10 10:27:32;;;;;;;11.10;4.60;;;;;;;34.73;42.52;101619.75;5034974;28;20111;-48
2023/09/10 10:29:58;;;;;;;;;;;;;;;35.26;46.80;101626.28;5045044;28;20025;-51
2023/09/10 10:32:32;;;;;;;6.53;3.63;;;;;;;35.28;42.03;101621.34;5042747;28;20349;-48
2023/09/10 10:35:04;;;;;;;15.90;4.50;;;;;;;35.50;41.77;101614.84;5051356;28;20107;-48
2023/09/10 10:37:35;;;;;;;12.18;4.30;;;;;;;35.52;41.87;101616.25;5047385;28;20032;-49
2023/09/10 10:40:17;;;;;;;9.27;3.92;;;;;;;35.54;41.82;101615.97;5044443;28;20103;-48
2023/09/10 10:42:50;;;;;;;8.25;4.40;;;;;;;35.60;40.50;101616.84;5057088;28;20044;-48
2023/09/10 10:45:17;;;;;;;9.07;3.95;;;;;;;35.94;38.98;101612.63;5050988;28;20067;-49
2023/09/10 10:47:44;;;;;;;13.68;4.78;;;;;;;35.95;38.79;101616.22;5051013;28;20059;-49
2023/09/10 10:50:10;;;;;;;7.22;3.78;;;;;;;36.16;38.37;101606.06;5047730;28;20468;-48
2023/09/10 10:52:41;;;;;;;8.30;3.75;;;;;;;36.13;40.12;101604.66;5053031;28;20045;-49
2023/09/10 10:55:07;;;;;;;9.10;4.03;;;;;;;36.30;39.06;101606.41;5048482;28;20123;-48
2023/09/10 10:57:34;;;;;;;11.18;3.90;;;;;;;36.45;39.21;101605.59;5053480;28;20029;-48
2023/09/10 11:00:03;;;;;;;8.80;3.83;;;;;;;36.71;37.33;101595.44;5043508;28;20033;-49
2023/09/10 11:02:28;;;;;;;7.85;3.92;;;;;;;36.87;37.90;101598.19;5045381;28;20379;-50
2023/09/10 11:04:59;;;;;;;9.07;3.63;;;;;;;36.68;39.11;101584.88;5046042;28;20064;-48